sensor_id;sensor_type;location;lat;lon;timestamp;temperature;humidity
10233;DHT22;5161;48.174;11.756;2023-05-07T00:00:33;15.70;86.80
10233;DHT22;5161;48.174;11.756;2023-05-07T00:02:59;15.70;86.80
10233;DHT22;5161;48.174;11.756;2023-05-07T00:05:26;15.70;86.80
10233;DHT22;5161;48.174;11.756;2023-05-07T00:07:52;15.70;86.90
10233;DHT22;5161;48.174;11.756;2023-05-07T00:10:20;15.70;86.90
10233;DHT22;5161;48.174;11.756;2023-05-07T00:12:46;15.60;86.80
10233;DHT22;5161;48.174;11.756;2023-05-07T00:15:11;15.60;86.90
10233;DHT22;5161;48.174;11.756;2023-05-07T00:17:37;15.60;86.90
10233;DHT22;5161;48.174;11.756;2023-05-07T00:20:04;15.50;86.80
10233;DHT22;5161;48.174;11.756;2023-05-07T00:22:30;15.50;86.90
10233;DHT22;5161;48.174;11.756;2023-05-07T00:24:56;15.50;87.00
10233;DHT22;5161;48.174;11.756;2023-05-07T00:27:22;15.40;87.00
10233;DHT22;5161;48.174;11.756;2023-05-07T00:29:48;15.40;87.00
10233;DHT22;5161;48.174;11.756;2023-05-07T00:32:13;15.40;87.10
10233;DHT22;5161;48.174;11.756;2023-05-07T00:34:39;15.40;87.00
10233;DHT22;5161;48.174;11.756;2023-05-07T00:37:05;15.40;87.10
10233;DHT22;5161;48.174;11.756;2023-05-07T00:39:33;15.40;87.20
10233;DHT22;5161;48.174;11.756;2023-05-07T00:41:58;15.40;87.20
10233;DHT22;5161;48.174;11.756;2023-05-07T00:44:24;15.40;87.30
10233;DHT22;5161;48.174;11.756;2023-05-07T00:46:50;15.40;87.20
10233;DHT22;5161;48.174;11.756;2023-05-07T00:49:16;15.30;87.10
10233;DHT22;5161;48.174;11.756;2023-05-07T00:51:42;15.30;87.20
10233;DHT22;5161;48.174;11.756;2023-05-07T00:54:08;15.30;87.30
10233;DHT22;5161;48.174;11.756;2023-05-07T00:56:34;15.30;87.30
10233;DHT22;5161;48.174;11.756;2023-05-07T00:59:01;15.30;87.30
10233;DHT22;5161;48.174;11.756;2023-05-07T01:01:27;15.20;87.20
10233;DHT22;5161;48.174;11.756;2023-05-07T01:03:53;15.20;87.40
10233;DHT22;5161;48.174;11.756;2023-05-07T01:06:19;15.20;87.60
10233;DHT22;5161;48.174;11.756;2023-05-07T01:08:46;15.20;87.60
10233;DHT22;5161;48.174;11.756;2023-05-07T01:11:13;15.20;87.50
10233;DHT22;5161;48.174;11.756;2023-05-07T01:13:39;15.20;87.50
10233;DHT22;5161;48.174;11.756;2023-05-07T01:16:06;15.20;87.60
10233;DHT22;5161;48.174;11.756;2023-05-07T01:18:32;15.20;87.70
10233;DHT22;5161;48.174;11.756;2023-05-07T01:20:58;15.20;87.70
10233;DHT22;5161;48.174;11.756;2023-05-07T01:23:25;15.20;87.80
10233;DHT22;5161;48.174;11.756;2023-05-07T01:25:53;15.20;87.80
10233;DHT22;5161;48.174;11.756;2023-05-07T01:28:19;15.10;87.80
10233;DHT22;5161;48.174;11.756;2023-05-07T01:30:48;15.10;87.90
10233;DHT22;5161;48.174;11.756;2023-05-07T01:33:18;15.10;87.80
10233;DHT22;5161;48.174;11.756;2023-05-07T01:35:48;15.10;87.90
10233;DHT22;5161;48.174;11.756;2023-05-07T01:38:14;15.10;88.20
10233;DHT22;5161;48.174;11.756;2023-05-07T01:40:40;15.10;88.10
10233;DHT22;5161;48.174;11.756;2023-05-07T01:43:06;15.10;88.70
10233;DHT22;5161;48.174;11.756;2023-05-07T01:45:32;15.10;88.20
10233;DHT22;5161;48.174;11.756;2023-05-07T01:48:00;15.10;88.80
10233;DHT22;5161;48.174;11.756;2023-05-07T01:50:26;15.10;88.30
10233;DHT22;5161;48.174;11.756;2023-05-07T01:52:52;15.00;88.30
10233;DHT22;5161;48.174;11.756;2023-05-07T01:55:18;15.00;88.30
10233;DHT22;5161;48.174;11.756;2023-05-07T01:57:44;15.00;88.30
10233;DHT22;5161;48.174;11.756;2023-05-07T02:00:10;15.00;88.30
10233;DHT22;5161;48.174;11.756;2023-05-07T02:02:36;15.00;88.30
10233;DHT22;5161;48.174;11.756;2023-05-07T02:05:03;15.00;88.30
10233;DHT22;5161;48.174;11.756;2023-05-07T02:07:29;14.90;88.30
10233;DHT22;5161;48.174;11.756;2023-05-07T02:09:54;14.90;88.40
10233;DHT22;5161;48.174;11.756;2023-05-07T02:12:23;14.90;88.40
10233;DHT22;5161;48.174;11.756;2023-05-07T02:14:49;14.90;88.30
10233;DHT22;5161;48.174;11.756;2023-05-07T02:17:15;14.90;88.40
10233;DHT22;5161;48.174;11.756;2023-05-07T02:19:40;14.90;88.50
10233;DHT22;5161;48.174;11.756;2023-05-07T02:22:07;14.80;88.40
10233;DHT22;5161;48.174;11.756;2023-05-07T02:24:32;14.90;88.60
10233;DHT22;5161;48.174;11.756;2023-05-07T02:26:58;14.90;88.60
10233;DHT22;5161;48.174;11.756;2023-05-07T02:29:23;14.80;88.50
10233;DHT22;5161;48.174;11.756;2023-05-07T02:31:49;14.80;88.60
10233;DHT22;5161;48.174;11.756;2023-05-07T02:34:16;14.80;88.60
10233;DHT22;5161;48.174;11.756;2023-05-07T02:36:42;14.80;88.70
10233;DHT22;5161;48.174;11.756;2023-05-07T02:39:08;14.90;88.80
10233;DHT22;5161;48.174;11.756;2023-05-07T02:41:33;14.80;88.70
10233;DHT22;5161;48.174;11.756;2023-05-07T02:43:59;14.80;88.70
10233;DHT22;5161;48.174;11.756;2023-05-07T02:46:25;14.80;88.70
10233;DHT22;5161;48.174;11.756;2023-05-07T02:48:50;14.80;88.70
10233;DHT22;5161;48.174;11.756;2023-05-07T02:51:19;14.80;88.70
10233;DHT22;5161;48.174;11.756;2023-05-07T02:53:45;14.70;88.80
10233;DHT22;5161;48.174;11.756;2023-05-07T02:56:11;14.70;88.70
10233;DHT22;5161;48.174;11.756;2023-05-07T02:58:37;14.70;89.00
10233;DHT22;5161;48.174;11.756;2023-05-07T03:01:05;14.70;89.00
10233;DHT22;5161;48.174;11.756;2023-05-07T03:03:30;14.70;89.00
10233;DHT22;5161;48.174;11.756;2023-05-07T03:05:56;14.70;89.00
10233;DHT22;5161;48.174;11.756;2023-05-07T03:08:21;14.70;89.10
10233;DHT22;5161;48.174;11.756;2023-05-07T03:10:47;14.70;89.10
10233;DHT22;5161;48.174;11.756;2023-05-07T03:13:13;14.70;89.20
10233;DHT22;5161;48.174;11.756;2023-05-07T03:15:38;14.70;89.30
10233;DHT22;5161;48.174;11.756;2023-05-07T03:18:04;14.70;89.30
10233;DHT22;5161;48.174;11.756;2023-05-07T03:20:29;14.70;89.20
10233;DHT22;5161;48.174;11.756;2023-05-07T03:22:55;14.70;89.30
10233;DHT22;5161;48.174;11.756;2023-05-07T03:25:21;14.70;89.30
10233;DHT22;5161;48.174;11.756;2023-05-07T03:27:46;14.70;89.30
10233;DHT22;5161;48.174;11.756;2023-05-07T03:30:12;14.70;89.40
10233;DHT22;5161;48.174;11.756;2023-05-07T03:32:38;14.70;89.30
10233;DHT22;5161;48.174;11.756;2023-05-07T03:35:04;14.70;89.40
10233;DHT22;5161;48.174;11.756;2023-05-07T03:37:29;14.70;89.40
10233;DHT22;5161;48.174;11.756;2023-05-07T03:39:55;14.70;89.30
10233;DHT22;5161;48.174;11.756;2023-05-07T03:42:21;14.60;89.20
10233;DHT22;5161;48.174;11.756;2023-05-07T03:44:46;14.60;89.20
10233;DHT22;5161;48.174;11.756;2023-05-07T03:47:12;14.60;89.30
10233;DHT22;5161;48.174;11.756;2023-05-07T03:49:39;14.50;89.20
10233;DHT22;5161;48.174;11.756;2023-05-07T03:52:05;14.50;89.30
10233;DHT22;5161;48.174;11.756;2023-05-07T03:54:30;14.50;89.30
10233;DHT22;5161;48.174;11.756;2023-05-07T03:56:56;14.40;89.30
10233;DHT22;5161;48.174;11.756;2023-05-07T03:59:22;14.40;89.20
10233;DHT22;5161;48.174;11.756;2023-05-07T04:01:47;14.40;89.30
10233;DHT22;5161;48.174;11.756;2023-05-07T04:04:14;14.40;89.20
10233;DHT22;5161;48.174;11.756;2023-05-07T04:06:40;14.40;89.20
10233;DHT22;5161;48.174;11.756;2023-05-07T04:09:05;14.30;89.20
10233;DHT22;5161;48.174;11.756;2023-05-07T04:11:31;14.30;89.30
10233;DHT22;5161;48.174;11.756;2023-05-07T04:13:57;14.30;89.80
10233;DHT22;5161;48.174;11.756;2023-05-07T04:16:23;14.30;89.40
10233;DHT22;5161;48.174;11.756;2023-05-07T04:18:48;14.30;89.40
10233;DHT22;5161;48.174;11.756;2023-05-07T04:21:15;14.30;89.30
10233;DHT22;5161;48.174;11.756;2023-05-07T04:23:41;14.30;89.60
10233;DHT22;5161;48.174;11.756;2023-05-07T04:26:07;14.30;89.50
10233;DHT22;5161;48.174;11.756;2023-05-07T04:28:32;14.30;89.50
10233;DHT22;5161;48.174;11.756;2023-05-07T04:30:58;14.30;89.60
10233;DHT22;5161;48.174;11.756;2023-05-07T04:33:23;14.30;89.70
10233;DHT22;5161;48.174;11.756;2023-05-07T04:35:49;14.30;89.70
10233;DHT22;5161;48.174;11.756;2023-05-07T04:38:14;14.30;89.80
10233;DHT22;5161;48.174;11.756;2023-05-07T04:40:40;14.30;89.90
10233;DHT22;5161;48.174;11.756;2023-05-07T04:43:06;14.30;89.90
10233;DHT22;5161;48.174;11.756;2023-05-07T04:45:32;14.30;90.00
10233;DHT22;5161;48.174;11.756;2023-05-07T04:47:58;14.30;90.00
10233;DHT22;5161;48.174;11.756;2023-05-07T04:50:23;14.30;90.10
10233;DHT22;5161;48.174;11.756;2023-05-07T04:52:49;14.40;90.20
10233;DHT22;5161;48.174;11.756;2023-05-07T04:55:15;14.40;90.20
10233;DHT22;5161;48.174;11.756;2023-05-07T04:57:41;14.40;90.40
10233;DHT22;5161;48.174;11.756;2023-05-07T05:00:07;14.40;90.20
10233;DHT22;5161;48.174;11.756;2023-05-07T05:02:34;14.40;90.30
10233;DHT22;5161;48.174;11.756;2023-05-07T05:05:01;14.50;90.40
10233;DHT22;5161;48.174;11.756;2023-05-07T05:07:27;14.50;90.40
10233;DHT22;5161;48.174;11.756;2023-05-07T05:09:54;14.50;90.40
10233;DHT22;5161;48.174;11.756;2023-05-07T05:12:20;14.50;90.40
10233;DHT22;5161;48.174;11.756;2023-05-07T05:14:45;14.50;90.50
10233;DHT22;5161;48.174;11.756;2023-05-07T05:17:11;14.60;90.60
10233;DHT22;5161;48.174;11.756;2023-05-07T05:19:36;14.60;90.60
10233;DHT22;5161;48.174;11.756;2023-05-07T05:22:02;14.60;90.60
10233;DHT22;5161;48.174;11.756;2023-05-07T05:24:29;14.60;90.60
10233;DHT22;5161;48.174;11.756;2023-05-07T05:26:55;14.70;90.70
10233;DHT22;5161;48.174;11.756;2023-05-07T05:29:21;14.70;90.80
10233;DHT22;5161;48.174;11.756;2023-05-07T05:31:46;14.60;90.80
10233;DHT22;5161;48.174;11.756;2023-05-07T05:34:12;14.70;90.90
10233;DHT22;5161;48.174;11.756;2023-05-07T05:36:37;14.80;91.00
10233;DHT22;5161;48.174;11.756;2023-05-07T05:39:04;14.80;91.00
10233;DHT22;5161;48.174;11.756;2023-05-07T05:41:29;14.80;91.00
10233;DHT22;5161;48.174;11.756;2023-05-07T05:43:55;14.80;91.10
10233;DHT22;5161;48.174;11.756;2023-05-07T05:46:21;14.90;91.20
10233;DHT22;5161;48.174;11.756;2023-05-07T05:48:47;14.90;91.20
10233;DHT22;5161;48.174;11.756;2023-05-07T05:51:12;14.90;91.30
10233;DHT22;5161;48.174;11.756;2023-05-07T05:53:38;14.90;91.40
10233;DHT22;5161;48.174;11.756;2023-05-07T05:56:04;15.00;91.50
10233;DHT22;5161;48.174;11.756;2023-05-07T05:58:30;15.00;91.50
10233;DHT22;5161;48.174;11.756;2023-05-07T06:00:55;15.10;91.70
10233;DHT22;5161;48.174;11.756;2023-05-07T06:03:21;15.10;91.70
10233;DHT22;5161;48.174;11.756;2023-05-07T06:05:47;15.10;91.80
10233;DHT22;5161;48.174;11.756;2023-05-07T06:08:13;15.20;91.80
10233;DHT22;5161;48.174;11.756;2023-05-07T06:10:39;15.30;91.90
10233;DHT22;5161;48.174;11.756;2023-05-07T06:13:04;15.30;91.90
10233;DHT22;5161;48.174;11.756;2023-05-07T06:15:30;15.30;92.10
10233;DHT22;5161;48.174;11.756;2023-05-07T06:17:56;15.40;92.00
10233;DHT22;5161;48.174;11.756;2023-05-07T06:20:22;15.50;92.10
10233;DHT22;5161;48.174;11.756;2023-05-07T06:22:48;15.50;92.10
10233;DHT22;5161;48.174;11.756;2023-05-07T06:25:14;15.60;92.20
10233;DHT22;5161;48.174;11.756;2023-05-07T06:27:40;15.70;92.20
10233;DHT22;5161;48.174;11.756;2023-05-07T06:30:06;15.70;92.20
10233;DHT22;5161;48.174;11.756;2023-05-07T06:32:32;15.70;92.20
10233;DHT22;5161;48.174;11.756;2023-05-07T06:34:57;15.80;92.30
10233;DHT22;5161;48.174;11.756;2023-05-07T06:37:23;15.80;92.40
10233;DHT22;5161;48.174;11.756;2023-05-07T06:39:49;15.90;92.40
10233;DHT22;5161;48.174;11.756;2023-05-07T06:42:14;15.90;92.40
10233;DHT22;5161;48.174;11.756;2023-05-07T06:44:40;16.00;92.40
10233;DHT22;5161;48.174;11.756;2023-05-07T06:47:06;16.10;92.40
10233;DHT22;5161;48.174;11.756;2023-05-07T06:49:31;16.20;92.40
10233;DHT22;5161;48.174;11.756;2023-05-07T06:51:57;16.20;92.40
10233;DHT22;5161;48.174;11.756;2023-05-07T06:54:23;16.20;92.40
10233;DHT22;5161;48.174;11.756;2023-05-07T06:56:49;16.30;92.40
10233;DHT22;5161;48.174;11.756;2023-05-07T06:59:15;16.40;92.50
10233;DHT22;5161;48.174;11.756;2023-05-07T07:01:40;16.40;92.50
10233;DHT22;5161;48.174;11.756;2023-05-07T07:04:06;16.60;92.60
10233;DHT22;5161;48.174;11.756;2023-05-07T07:06:32;16.60;92.50
10233;DHT22;5161;48.174;11.756;2023-05-07T07:08:58;16.70;92.50
10233;DHT22;5161;48.174;11.756;2023-05-07T07:11:24;16.80;92.40
10233;DHT22;5161;48.174;11.756;2023-05-07T07:13:50;16.80;92.40
10233;DHT22;5161;48.174;11.756;2023-05-07T07:16:16;16.80;92.40
10233;DHT22;5161;48.174;11.756;2023-05-07T07:18:42;16.80;92.40
10233;DHT22;5161;48.174;11.756;2023-05-07T07:21:08;16.80;92.40
10233;DHT22;5161;48.174;11.756;2023-05-07T07:23:33;16.90;92.50
10233;DHT22;5161;48.174;11.756;2023-05-07T07:25:59;16.90;92.50
10233;DHT22;5161;48.174;11.756;2023-05-07T07:28:25;17.00;92.40
10233;DHT22;5161;48.174;11.756;2023-05-07T07:30:51;17.00;92.50
10233;DHT22;5161;48.174;11.756;2023-05-07T07:33:16;17.10;92.50
10233;DHT22;5161;48.174;11.756;2023-05-07T07:35:42;17.10;92.40
10233;DHT22;5161;48.174;11.756;2023-05-07T07:38:08;17.20;92.40
10233;DHT22;5161;48.174;11.756;2023-05-07T07:40:36;17.20;92.40
10233;DHT22;5161;48.174;11.756;2023-05-07T07:43:02;17.30;92.30
10233;DHT22;5161;48.174;11.756;2023-05-07T07:45:28;17.40;92.50
10233;DHT22;5161;48.174;11.756;2023-05-07T07:47:54;17.40;92.40
10233;DHT22;5161;48.174;11.756;2023-05-07T07:50:20;17.50;92.40
10233;DHT22;5161;48.174;11.756;2023-05-07T07:52:45;17.50;92.40
10233;DHT22;5161;48.174;11.756;2023-05-07T07:55:11;17.60;92.70
10233;DHT22;5161;48.174;11.756;2023-05-07T07:57:37;17.60;92.50
10233;DHT22;5161;48.174;11.756;2023-05-07T08:00:03;17.60;92.30
10233;DHT22;5161;48.174;11.756;2023-05-07T08:02:29;17.70;92.40
10233;DHT22;5161;48.174;11.756;2023-05-07T08:04:55;17.70;92.40
10233;DHT22;5161;48.174;11.756;2023-05-07T08:07:21;17.70;92.40
10233;DHT22;5161;48.174;11.756;2023-05-07T08:09:48;17.80;92.30
10233;DHT22;5161;48.174;11.756;2023-05-07T08:12:14;17.80;92.10
10233;DHT22;5161;48.174;11.756;2023-05-07T08:14:40;17.90;92.20
10233;DHT22;5161;48.174;11.756;2023-05-07T08:17:05;17.90;92.10
10233;DHT22;5161;48.174;11.756;2023-05-07T08:19:31;18.00;92.20
10233;DHT22;5161;48.174;11.756;2023-05-07T08:21:57;18.10;92.00
10233;DHT22;5161;48.174;11.756;2023-05-07T08:24:23;18.10;92.10
10233;DHT22;5161;48.174;11.756;2023-05-07T08:26:49;18.10;92.00
10233;DHT22;5161;48.174;11.756;2023-05-07T08:29:15;18.20;92.00
10233;DHT22;5161;48.174;11.756;2023-05-07T08:31:41;18.20;91.90
10233;DHT22;5161;48.174;11.756;2023-05-07T08:34:07;18.30;92.00
10233;DHT22;5161;48.174;11.756;2023-05-07T08:36:32;18.30;92.00
10233;DHT22;5161;48.174;11.756;2023-05-07T08:38:59;18.30;91.90
10233;DHT22;5161;48.174;11.756;2023-05-07T08:41:25;18.40;91.80
10233;DHT22;5161;48.174;11.756;2023-05-07T08:43:51;18.40;91.40
10233;DHT22;5161;48.174;11.756;2023-05-07T08:46:19;18.50;91.50
10233;DHT22;5161;48.174;11.756;2023-05-07T08:48:48;18.60;91.50
10233;DHT22;5161;48.174;11.756;2023-05-07T08:51:16;18.60;91.40
10233;DHT22;5161;48.174;11.756;2023-05-07T08:53:42;18.60;91.30
10233;DHT22;5161;48.174;11.756;2023-05-07T08:56:11;18.70;91.10
10233;DHT22;5161;48.174;11.756;2023-05-07T08:58:37;18.80;91.00
10233;DHT22;5161;48.174;11.756;2023-05-07T09:01:09;18.80;90.90
10233;DHT22;5161;48.174;11.756;2023-05-07T09:03:37;18.80;90.90
10233;DHT22;5161;48.174;11.756;2023-05-07T09:06:03;18.80;90.80
10233;DHT22;5161;48.174;11.756;2023-05-07T09:08:29;18.90;90.60
10233;DHT22;5161;48.174;11.756;2023-05-07T09:10:55;18.90;90.50
10233;DHT22;5161;48.174;11.756;2023-05-07T09:13:23;18.90;90.60
10233;DHT22;5161;48.174;11.756;2023-05-07T09:15:49;18.90;89.10
10233;DHT22;5161;48.174;11.756;2023-05-07T09:18:14;18.90;90.30
10233;DHT22;5161;48.174;11.756;2023-05-07T09:20:44;19.00;90.30
10233;DHT22;5161;48.174;11.756;2023-05-07T09:23:12;19.00;90.30
10233;DHT22;5161;48.174;11.756;2023-05-07T09:25:39;19.00;90.30
10233;DHT22;5161;48.174;11.756;2023-05-07T09:28:05;19.10;90.20
10233;DHT22;5161;48.174;11.756;2023-05-07T09:30:34;19.20;90.10
10233;DHT22;5161;48.174;11.756;2023-05-07T09:33:02;19.20;90.00
10233;DHT22;5161;48.174;11.756;2023-05-07T09:35:29;19.30;90.00
10233;DHT22;5161;48.174;11.756;2023-05-07T09:37:59;19.30;88.30
10233;DHT22;5161;48.174;11.756;2023-05-07T09:40:28;19.30;88.80
10233;DHT22;5161;48.174;11.756;2023-05-07T09:42:54;19.30;87.60
10233;DHT22;5161;48.174;11.756;2023-05-07T09:45:30;19.30;88.40
10233;DHT22;5161;48.174;11.756;2023-05-07T09:47:58;19.40;88.30
10233;DHT22;5161;48.174;11.756;2023-05-07T09:50:36;19.50;88.80
10233;DHT22;5161;48.174;11.756;2023-05-07T09:53:03;19.50;89.00
10233;DHT22;5161;48.174;11.756;2023-05-07T09:55:29;19.60;88.30
10233;DHT22;5161;48.174;11.756;2023-05-07T09:57:55;19.60;88.50
10233;DHT22;5161;48.174;11.756;2023-05-07T10:00:22;19.60;87.60
10233;DHT22;5161;48.174;11.756;2023-05-07T10:02:49;19.60;87.50
10233;DHT22;5161;48.174;11.756;2023-05-07T10:05:17;19.70;85.10
10233;DHT22;5161;48.174;11.756;2023-05-07T10:07:43;19.70;86.70
10233;DHT22;5161;48.174;11.756;2023-05-07T10:10:14;19.70;85.90
10233;DHT22;5161;48.174;11.756;2023-05-07T10:12:41;19.70;86.10
10233;DHT22;5161;48.174;11.756;2023-05-07T10:15:11;19.80;85.30
10233;DHT22;5161;48.174;11.756;2023-05-07T10:17:39;19.90;85.60
10233;DHT22;5161;48.174;11.756;2023-05-07T10:20:05;19.90;86.40
10233;DHT22;5161;48.174;11.756;2023-05-07T10:22:38;19.90;86.90
10233;DHT22;5161;48.174;11.756;2023-05-07T10:25:07;20.00;87.50
10233;DHT22;5161;48.174;11.756;2023-05-07T10:27:36;20.10;86.60
10233;DHT22;5161;48.174;11.756;2023-05-07T10:32:40;20.10;87.20
10233;DHT22;5161;48.174;11.756;2023-05-07T10:35:19;20.20;87.00
10233;DHT22;5161;48.174;11.756;2023-05-07T10:37:46;20.20;86.50
10233;DHT22;5161;48.174;11.756;2023-05-07T10:40:12;20.20;86.80
10233;DHT22;5161;48.174;11.756;2023-05-07T10:42:39;20.20;86.80
10233;DHT22;5161;48.174;11.756;2023-05-07T10:45:17;20.30;87.10
10233;DHT22;5161;48.174;11.756;2023-05-07T10:50:30;20.40;87.00
10233;DHT22;5161;48.174;11.756;2023-05-07T10:55:40;20.30;86.60
10233;DHT22;5161;48.174;11.756;2023-05-07T11:00:48;20.50;86.90
10233;DHT22;5161;48.174;11.756;2023-05-07T11:03:14;20.50;86.30
10233;DHT22;5161;48.174;11.756;2023-05-07T11:05:41;20.50;86.20
10233;DHT22;5161;48.174;11.756;2023-05-07T11:08:10;20.50;85.90
10233;DHT22;5161;48.174;11.756;2023-05-07T11:10:58;20.60;86.30
10233;DHT22;5161;48.174;11.756;2023-05-07T11:13:44;20.60;85.70
10233;DHT22;5161;48.174;11.756;2023-05-07T11:16:23;20.70;86.10
10233;DHT22;5161;48.174;11.756;2023-05-07T11:18:54;20.70;85.50
10233;DHT22;5161;48.174;11.756;2023-05-07T11:21:39;20.70;84.60
10233;DHT22;5161;48.174;11.756;2023-05-07T11:24:09;20.80;84.30
10233;DHT22;5161;48.174;11.756;2023-05-07T11:26:50;20.80;85.10
10233;DHT22;5161;48.174;11.756;2023-05-07T11:29:21;20.80;84.80
10233;DHT22;5161;48.174;11.756;2023-05-07T11:31:54;20.80;84.30
10233;DHT22;5161;48.174;11.756;2023-05-07T11:34:25;20.80;83.80
10233;DHT22;5161;48.174;11.756;2023-05-07T11:36:51;20.80;82.80
10233;DHT22;5161;48.174;11.756;2023-05-07T11:39:30;20.80;83.00
10233;DHT22;5161;48.174;11.756;2023-05-07T11:42:00;20.80;83.30
10233;DHT22;5161;48.174;11.756;2023-05-07T11:44:42;20.90;83.00
10233;DHT22;5161;48.174;11.756;2023-05-07T11:47:20;20.90;83.40
10233;DHT22;5161;48.174;11.756;2023-05-07T11:49:50;20.90;82.90
10233;DHT22;5161;48.174;11.756;2023-05-07T11:52:17;21.00;82.90
10233;DHT22;5161;48.174;11.756;2023-05-07T11:57:18;21.00;81.80
10233;DHT22;5161;48.174;11.756;2023-05-07T11:59:46;21.10;82.70
10233;DHT22;5161;48.174;11.756;2023-05-07T12:02:16;21.10;82.10
10233;DHT22;5161;48.174;11.756;2023-05-07T12:04:47;21.20;82.10
10233;DHT22;5161;48.174;11.756;2023-05-07T12:07:14;21.20;81.50
10233;DHT22;5161;48.174;11.756;2023-05-07T12:09:44;21.20;81.40
10233;DHT22;5161;48.174;11.756;2023-05-07T12:12:10;21.30;81.40
10233;DHT22;5161;48.174;11.756;2023-05-07T12:14:40;21.30;80.80
10233;DHT22;5161;48.174;11.756;2023-05-07T12:17:09;21.30;81.10
10233;DHT22;5161;48.174;11.756;2023-05-07T12:19:36;21.40;80.90
10233;DHT22;5161;48.174;11.756;2023-05-07T12:22:05;21.50;80.10
10233;DHT22;5161;48.174;11.756;2023-05-07T12:24:49;21.40;79.20
10233;DHT22;5161;48.174;11.756;2023-05-07T12:27:15;21.50;80.00
10233;DHT22;5161;48.174;11.756;2023-05-07T12:29:48;21.50;79.40
10233;DHT22;5161;48.174;11.756;2023-05-07T12:32:18;21.60;77.40
10233;DHT22;5161;48.174;11.756;2023-05-07T12:34:44;21.60;78.20
10233;DHT22;5161;48.174;11.756;2023-05-07T12:37:10;21.60;77.90
10233;DHT22;5161;48.174;11.756;2023-05-07T12:39:36;21.60;76.50
10233;DHT22;5161;48.174;11.756;2023-05-07T12:42:01;21.70;77.40
10233;DHT22;5161;48.174;11.756;2023-05-07T12:44:34;21.70;75.30
10233;DHT22;5161;48.174;11.756;2023-05-07T12:47:03;21.70;76.70
10233;DHT22;5161;48.174;11.756;2023-05-07T12:49:28;21.70;74.50
10233;DHT22;5161;48.174;11.756;2023-05-07T12:51:54;21.70;74.10
10233;DHT22;5161;48.174;11.756;2023-05-07T12:54:34;21.70;74.50
10233;DHT22;5161;48.174;11.756;2023-05-07T12:57:06;21.80;74.40
10233;DHT22;5161;48.174;11.756;2023-05-07T12:59:36;21.80;73.70
10233;DHT22;5161;48.174;11.756;2023-05-07T13:02:02;21.80;73.70
10233;DHT22;5161;48.174;11.756;2023-05-07T13:04:27;21.90;73.20
10233;DHT22;5161;48.174;11.756;2023-05-07T13:06:53;21.90;72.80
10233;DHT22;5161;48.174;11.756;2023-05-07T13:09:18;21.90;72.20
10233;DHT22;5161;48.174;11.756;2023-05-07T13:11:44;22.00;72.90
10233;DHT22;5161;48.174;11.756;2023-05-07T13:14:09;22.00;72.50
10233;DHT22;5161;48.174;11.756;2023-05-07T13:16:35;22.00;72.10
10233;DHT22;5161;48.174;11.756;2023-05-07T13:19:00;22.10;71.60
10233;DHT22;5161;48.174;11.756;2023-05-07T13:21:26;22.10;72.20
10233;DHT22;5161;48.174;11.756;2023-05-07T13:23:52;22.20;72.50
10233;DHT22;5161;48.174;11.756;2023-05-07T13:26:18;22.20;72.00
10233;DHT22;5161;48.174;11.756;2023-05-07T13:28:43;22.20;71.10
10233;DHT22;5161;48.174;11.756;2023-05-07T13:31:09;22.30;72.00
10233;DHT22;5161;48.174;11.756;2023-05-07T13:33:35;22.40;72.80
10233;DHT22;5161;48.174;11.756;2023-05-07T13:36:01;22.50;73.00
10233;DHT22;5161;48.174;11.756;2023-05-07T13:38:29;22.60;72.60
10233;DHT22;5161;48.174;11.756;2023-05-07T13:40:54;22.60;71.90
10233;DHT22;5161;48.174;11.756;2023-05-07T13:43:20;22.70;72.50
10233;DHT22;5161;48.174;11.756;2023-05-07T13:45:46;22.80;71.90
10233;DHT22;5161;48.174;11.756;2023-05-07T13:48:11;22.80;72.10
10233;DHT22;5161;48.174;11.756;2023-05-07T13:50:37;22.90;72.50
10233;DHT22;5161;48.174;11.756;2023-05-07T13:53:02;22.90;72.10
10233;DHT22;5161;48.174;11.756;2023-05-07T13:55:28;22.90;72.20
10233;DHT22;5161;48.174;11.756;2023-05-07T13:58:01;23.00;72.60
10233;DHT22;5161;48.174;11.756;2023-05-07T14:00:28;23.00;72.10
10233;DHT22;5161;48.174;11.756;2023-05-07T14:02:54;23.00;72.10
10233;DHT22;5161;48.174;11.756;2023-05-07T14:05:21;23.00;70.60
10233;DHT22;5161;48.174;11.756;2023-05-07T14:07:49;23.00;71.80
10233;DHT22;5161;48.174;11.756;2023-05-07T14:10:17;23.10;71.60
10233;DHT22;5161;48.174;11.756;2023-05-07T14:12:44;23.10;71.10
10233;DHT22;5161;48.174;11.756;2023-05-07T14:15:10;23.10;71.80
10233;DHT22;5161;48.174;11.756;2023-05-07T14:17:36;23.20;71.80
10233;DHT22;5161;48.174;11.756;2023-05-07T14:20:01;23.20;71.90
10233;DHT22;5161;48.174;11.756;2023-05-07T14:22:27;23.20;72.30
10233;DHT22;5161;48.174;11.756;2023-05-07T14:24:52;23.30;72.20
10233;DHT22;5161;48.174;11.756;2023-05-07T14:27:18;23.30;71.80
10233;DHT22;5161;48.174;11.756;2023-05-07T14:29:44;23.20;71.60
10233;DHT22;5161;48.174;11.756;2023-05-07T14:32:11;23.20;71.80
10233;DHT22;5161;48.174;11.756;2023-05-07T14:34:36;23.20;71.80
10233;DHT22;5161;48.174;11.756;2023-05-07T14:37:02;23.20;71.50
10233;DHT22;5161;48.174;11.756;2023-05-07T14:39:27;23.10;71.50
10233;DHT22;5161;48.174;11.756;2023-05-07T14:41:53;23.10;71.80
10233;DHT22;5161;48.174;11.756;2023-05-07T14:44:20;23.00;71.80
10233;DHT22;5161;48.174;11.756;2023-05-07T14:46:46;23.00;71.20
10233;DHT22;5161;48.174;11.756;2023-05-07T14:49:11;22.90;71.20
10233;DHT22;5161;48.174;11.756;2023-05-07T14:51:45;22.90;70.30
10233;DHT22;5161;48.174;11.756;2023-05-07T14:54:12;22.80;70.60
10233;DHT22;5161;48.174;11.756;2023-05-07T14:56:37;22.80;71.00
10233;DHT22;5161;48.174;11.756;2023-05-07T14:59:03;22.70;70.30
10233;DHT22;5161;48.174;11.756;2023-05-07T15:01:29;22.70;70.60
10233;DHT22;5161;48.174;11.756;2023-05-07T15:03:55;22.60;70.10
10233;DHT22;5161;48.174;11.756;2023-05-07T15:06:21;22.60;70.50
10233;DHT22;5161;48.174;11.756;2023-05-07T15:08:46;22.60;70.00
10233;DHT22;5161;48.174;11.756;2023-05-07T15:11:12;22.60;70.40
10233;DHT22;5161;48.174;11.756;2023-05-07T15:13:38;22.70;70.70
10233;DHT22;5161;48.174;11.756;2023-05-07T15:16:03;22.70;70.80
10233;DHT22;5161;48.174;11.756;2023-05-07T15:18:29;22.60;70.70
10233;DHT22;5161;48.174;11.756;2023-05-07T15:20:55;22.60;70.50
10233;DHT22;5161;48.174;11.756;2023-05-07T15:23:22;22.50;69.30
10233;DHT22;5161;48.174;11.756;2023-05-07T15:25:47;22.50;69.90
10233;DHT22;5161;48.174;11.756;2023-05-07T15:28:13;22.30;69.10
10233;DHT22;5161;48.174;11.756;2023-05-07T15:30:38;22.30;69.70
10233;DHT22;5161;48.174;11.756;2023-05-07T15:33:04;22.20;69.60
10233;DHT22;5161;48.174;11.756;2023-05-07T15:35:29;22.20;68.90
10233;DHT22;5161;48.174;11.756;2023-05-07T15:37:55;22.20;69.30
10233;DHT22;5161;48.174;11.756;2023-05-07T15:40:21;22.20;69.40